Time;durP1;ratioP1;P1;durP2;ratioP2;P2;SDS_P1;SDS_P2;PMS_P1;PMS_P2;Temp;Humidity;BMP_temperature;BMP_pressure;BME280_temperature;BME280_humidity;BME280_pressure;Samples;Min_cycle;Max_cycle;Signal;HPM_P1;HPM_P2
2023/09/07 00:02:10;;;;;;;;;;;;;;;;;;;;;
2023/09/07 00:05:08;;;;;;;4.63;4.33;;;23.90;90.40;;;;;;6200636;23;20444;-83
2023/09/07 00:07:55;;;;;;;4.73;4.17;;;23.70;89.30;;;;;;6184297;23;20708;-85
2023/09/07 00:10:42;;;;;;;4.70;4.30;;;23.60;89.70;;;;;;6183065;23;20504;-81
2023/09/07 00:13:28;;;;;;;4.80;4.40;;;23.60;89.40;;;;;;6210141;23;21308;-82
2023/09/07 00:16:33;;;;;;;4.33;3.93;;;23.80;89.10;;;;;;6211440;23;20419;-83
2023/09/07 00:19:23;;;;;;;4.50;4.10;;;23.90;88.10;;;;;;6186342;23;20416;-82
2023/09/07 00:22:05;;;;;;;4.90;4.50;;;23.70;88.90;;;;;;6218949;23;20433;-82
2023/09/07 00:25:19;;;;;;;5.10;4.40;;;23.80;88.70;;;;;;6198773;23;20433;-83
2023/09/07 00:27:51;;;;;;;5.73;4.70;;;23.70;88.90;;;;;;6182423;23;20447;-83
2023/09/07 00:30:45;;;;;;;4.77;4.37;;;23.60;90.20;;;;;;6181894;23;20392;-83
2023/09/07 00:33:15;;;;;;;4.70;4.30;;;23.30;90.60;;;;;;6179159;23;20410;-84
2023/09/07 00:35:52;;;;;;;4.60;4.30;;;23.60;91.00;;;;;;6180323;23;20496;-82
2023/09/07 00:38:34;;;;;;;4.73;4.00;;;23.10;91.10;;;;;;6181684;23;20413;-82
2023/09/07 00:41:02;;;;;;;6.13;5.10;;;23.00;91.50;;;;;;6180597;23;20440;-83
2023/09/07 00:43:40;;;;;;;5.63;5.10;;;22.90;91.60;;;;;;6193621;23;20406;-81
2023/09/07 00:46:15;;;;;;;5.17;4.00;;;22.90;91.80;;;;;;6184464;23;20680;-83
2023/09/07 00:51:54;;;;;;;5.50;4.47;;;22.80;92.00;;;;;;6193883;23;20437;-82
2023/09/07 00:54:31;;;;;;;4.50;4.10;;;22.80;92.30;;;;;;6185390;23;20392;-82
2023/09/07 00:57:18;;;;;;;4.87;4.47;;;22.70;92.80;;;;;;6186372;23;20409;-85
2023/09/07 00:59:47;;;;;;;4.90;4.50;;;22.70;92.40;;;;;;6183877;23;20435;-83
2023/09/07 01:02:31;;;;;;;7.07;4.10;;;22.80;92.30;;;;;;6211854;23;20437;-81
2023/09/07 01:05:23;;;;;;;4.60;4.20;;;22.70;92.30;;;;;;6185542;23;20713;-83
2023/09/07 01:08:10;;;;;;;4.33;4.03;;;22.60;92.50;;;;;;6185196;23;20455;-84
2023/09/07 01:11:06;;;;;;;6.13;4.20;;;22.80;92.80;;;;;;6185004;23;20536;-82
2023/09/07 01:13:37;;;;;;;5.17;4.30;;;22.50;92.80;;;;;;6185337;23;20413;-83
2023/09/07 01:16:23;;;;;;;4.00;3.60;;;22.40;93.10;;;;;;6185794;23;20412;-83
2023/09/07 01:19:36;;;;;;;4.57;4.17;;;22.60;93.10;;;;;;6187774;23;20448;-83
2023/09/07 01:22:24;;;;;;;4.77;4.03;;;22.40;92.80;;;;;;6188635;23;20686;-84
2023/09/07 01:25:33;;;;;;;6.10;4.60;;;22.30;93.10;;;;;;6199598;23;20428;-84
2023/09/07 01:28:15;;;;;;;4.50;4.10;;;22.30;93.30;;;;;;6200764;23;20397;-82
2023/09/07 01:30:57;;;;;;;4.47;4.07;;;22.20;93.40;;;;;;6197188;23;20459;-83
2023/09/07 01:33:27;;;;;;;4.90;4.27;;;22.40;93.00;;;;;;6198855;23;20467;-82
2023/09/07 01:36:03;;;;;;;5.87;4.37;;;22.40;93.10;;;;;;6198173;23;20401;-83
2023/09/07 01:38:31;;;;;;;4.80;4.30;;;22.30;93.10;;;;;;6198470;23;20437;-81
2023/09/07 01:40:58;;;;;;;5.00;4.20;;;22.40;92.90;;;;;;6220164;23;20413;-82
2023/09/07 01:43:36;;;;;;;4.80;4.30;;;22.30;93.00;;;;;;6194950;23;20425;-81
2023/09/07 01:46:07;;;;;;;5.00;4.50;;;22.10;93.60;;;;;;6222723;23;21012;-82
2023/09/07 01:48:34;;;;;;;5.37;4.90;;;22.20;93.90;;;;;;6217999;23;20417;-80
2023/09/07 01:51:03;;;;;;;4.90;4.50;;;22.10;94.10;;;;;;6190855;23;20460;-83
2023/09/07 01:53:31;;;;;;;5.73;5.23;;;22.10;94.30;;;;;;6212760;23;20405;-84
2023/09/07 01:56:17;;;;;;;6.93;4.20;;;22.20;94.10;;;;;;6193601;23;20445;-84
2023/09/07 01:58:46;;;;;;;5.10;4.60;;;22.20;94.10;;;;;;6213974;23;20459;-84
2023/09/07 02:01:36;;;;;;;4.80;4.40;;;22.30;93.90;;;;;;6185755;23;20441;-83
2023/09/07 02:04:17;;;;;;;5.13;4.30;;;22.20;94.10;;;;;;6211691;23;20428;-82
2023/09/07 02:07:00;;;;;;;5.33;4.83;;;22.10;94.00;;;;;;6209722;23;20433;-83
2023/09/07 02:09:32;;;;;;;6.83;4.53;;;22.10;94.40;;;;;;6181550;23;20408;-82
2023/09/07 02:11:59;;;;;;;5.00;4.53;;;22.00;94.20;;;;;;6204233;23;20436;-83
2023/09/07 02:14:31;;;;;;;4.67;4.27;;;22.10;94.40;;;;;;6207309;23;20500;-82
2023/09/07 02:17:07;;;;;;;4.50;3.60;;;22.00;94.20;;;;;;6184936;23;20447;-82
2023/09/07 02:19:38;;;;;;;4.80;4.30;;;21.80;94.20;;;;;;6220464;23;20384;-83
2023/09/07 02:22:16;;;;;;;5.20;4.80;;;21.80;94.60;;;;;;6192243;23;20424;-84
2023/09/07 02:24:51;;;;;;;4.80;4.40;;;22.10;94.70;;;;;;6194050;23;20436;-83
2023/09/07 02:27:22;;;;;;;4.80;4.30;;;21.60;94.90;;;;;;6194259;23;20389;-84
2023/09/07 02:29:49;;;;;;;5.37;4.30;;;21.60;95.40;;;;;;6220197;23;20425;-84
2023/09/07 02:32:32;;;;;;;5.17;4.67;;;21.60;95.30;;;;;;6215953;22;20455;-82
2023/09/07 02:34:59;;;;;;;4.87;4.37;;;21.50;95.60;;;;;;6255086;22;20403;-81
2023/09/07 02:37:32;;;;;;;4.67;4.27;;;21.50;96.00;;;;;;6255964;22;20399;-80
2023/09/07 02:40:00;;;;;;;5.13;4.60;;;21.50;95.80;;;;;;6256235;22;20442;-82
2023/09/07 02:42:27;;;;;;;4.90;4.50;;;21.80;96.10;;;;;;6282675;22;20545;-83
2023/09/07 02:44:58;;;;;;;8.90;4.90;;;21.40;96.00;;;;;;6257473;22;20399;-81
2023/09/07 02:47:30;;;;;;;4.90;4.50;;;21.10;96.00;;;;;;6263050;22;20383;-83
2023/09/07 02:50:11;;;;;;;4.70;4.30;;;21.40;96.20;;;;;;6267019;22;20422;-83
2023/09/07 02:56:04;;;;;;;4.83;4.43;;;21.50;95.90;;;;;;6263823;22;20403;-83
2023/09/07 02:58:34;;;;;;;5.77;4.83;;;21.40;96.10;;;;;;6272187;22;20399;-84
2023/09/07 03:01:08;;;;;;;5.50;4.70;;;21.80;96.50;;;;;;6276502;22;20427;-82
2023/09/07 03:03:35;;;;;;;4.73;4.37;;;21.40;95.90;;;;;;6272564;22;20426;-85
2023/09/07 03:06:13;;;;;;;5.67;5.17;;;21.50;95.70;;;;;;6275821;22;20446;-83
2023/09/07 03:08:41;;;;;;;4.53;3.83;;;21.40;95.70;;;;;;6277025;22;20502;-85
2023/09/07 03:11:09;;;;;;;4.40;4.00;;;21.40;96.20;;;;;;6274847;22;20681;-84
2023/09/07 03:13:36;;;;;;;5.47;4.60;;;21.40;96.40;;;;;;6247935;22;20407;-83
2023/09/07 03:16:04;;;;;;;5.80;4.83;;;21.40;96.40;;;;;;6248765;22;20441;-84
2023/09/07 03:18:31;;;;;;;4.63;4.27;;;21.40;96.40;;;;;;6248594;22;20442;-84
2023/09/07 03:21:00;;;;;;;6.10;4.77;;;21.40;96.40;;;;;;6246931;22;20458;-83
2023/09/07 03:23:28;;;;;;;4.60;4.20;;;21.40;96.30;;;;;;6247701;22;20406;-82
2023/09/07 03:25:55;;;;;;;4.83;4.43;;;21.40;96.30;;;;;;6247801;22;20446;-83
2023/09/07 03:28:24;;;;;;;4.43;4.03;;;21.50;96.20;;;;;;6248468;22;20399;-81
2023/09/07 03:30:53;;;;;;;4.97;4.50;;;21.50;95.80;;;;;;6248162;22;20453;-84
2023/09/07 03:33:24;;;;;;;4.60;4.30;;;21.40;95.70;;;;;;6249794;22;20419;-82
2023/09/07 03:36:16;;;;;;;5.63;5.13;;;21.40;95.40;;;;;;6249287;22;20421;-84
2023/09/07 03:38:48;;;;;;;4.93;4.47;;;21.30;95.40;;;;;;6247900;22;20408;-80
2023/09/07 03:41:22;;;;;;;4.80;4.33;;;21.50;95.60;;;;;;6273253;22;20462;-82
2023/09/07 03:44:00;;;;;;;4.83;4.43;;;21.20;95.70;;;;;;6248412;22;20448;-83
2023/09/07 03:46:33;;;;;;;4.93;4.53;;;21.30;95.60;;;;;;6258875;22;20422;-84
2023/09/07 03:49:14;;;;;;;4.97;4.57;;;21.20;95.70;;;;;;6287882;22;20422;-83
2023/09/07 03:52:13;;;;;;;4.23;3.83;;;20.90;95.60;;;;;;6261656;22;20437;-81
2023/09/07 03:54:43;;;;;;;4.67;4.27;;;21.00;95.90;;;;;;6256394;22;20407;-83
2023/09/07 03:57:16;;;;;;;4.33;4.00;;;20.90;96.10;;;;;;6255452;22;20759;-83
2023/09/07 03:59:59;;;;;;;4.63;4.23;;;20.90;96.20;;;;;;6253224;22;20421;-83
2023/09/07 04:02:49;;;;;;;6.03;4.27;;;20.90;96.40;;;;;;6250877;22;20426;-81
2023/09/07 04:05:25;;;;;;;6.20;4.43;;;21.10;95.80;;;;;;6276153;22;20426;-80
2023/09/07 04:11:35;;;;;;;6.00;4.53;;;20.90;95.90;;;;;;6254764;22;20437;-81
2023/09/07 04:14:10;;;;;;;3.80;3.50;;;20.90;96.30;;;;;;6248370;22;20431;-83
2023/09/07 04:17:07;;;;;;;5.83;4.10;;;20.90;96.10;;;;;;6249489;22;20418;-80
2023/09/07 04:20:03;;;;;;;7.23;4.73;;;20.80;96.30;;;;;;6275099;22;20488;-81
2023/09/07 04:23:03;;;;;;;4.47;4.07;;;20.90;95.90;;;;;;6248000;22;20431;-83
2023/09/07 04:25:32;;;;;;;4.90;4.50;;;20.90;95.70;;;;;;6248569;22;20521;-83
2023/09/07 04:28:09;;;;;;;4.57;4.20;;;20.70;96.00;;;;;;6249825;22;20795;-81
2023/09/07 04:30:42;;;;;;;4.83;4.03;;;20.60;96.40;;;;;;6276127;22;20432;-83
2023/09/07 04:33:18;;;;;;;5.07;4.33;;;20.60;96.70;;;;;;6276960;22;20415;-82
2023/09/07 04:36:21;;;;;;;5.40;4.00;;;20.70;96.30;;;;;;6277819;22;20438;-83
2023/09/07 04:38:58;;;;;;;5.03;4.53;;;20.70;96.30;;;;;;6254721;22;20402;-82
2023/09/07 04:41:35;;;;;;;4.37;3.97;;;20.50;96.50;;;;;;6265676;22;20434;-83
2023/09/07 04:44:16;;;;;;;6.40;5.20;;;20.50;96.90;;;;;;6267057;22;20669;-84
2023/09/07 04:47:04;;;;;;;5.37;4.60;;;20.40;97.20;;;;;;6266328;22;20462;-84
2023/09/07 04:49:37;;;;;;;3.93;3.60;;;20.30;97.30;;;;;;6263295;22;20400;-84
2023/09/07 04:52:24;;;;;;;4.57;4.20;;;20.40;97.40;;;;;;6263645;22;20438;-83
2023/09/07 04:55:13;;;;;;;6.83;4.63;;;20.40;97.30;;;;;;6247544;22;20403;-83
2023/09/07 04:58:01;;;;;;;4.43;4.03;;;20.40;97.20;;;;;;6240672;22;20429;-83
2023/09/07 05:00:51;;;;;;;4.67;4.20;;;20.60;96.90;;;;;;6241028;22;20435;-85
2023/09/07 05:11:49;;;;;;;4.83;4.43;;;20.40;96.20;;;;;;6278613;22;20526;-82
2023/09/07 05:14:31;;;;;;;6.80;3.93;;;20.30;96.30;;;;;;6225206;22;20410;-82
2023/09/07 05:17:06;;;;;;;5.10;4.60;;;20.10;96.70;;;;;;6239220;22;20410;-82
2023/09/07 05:19:41;;;;;;;5.10;4.70;;;20.20;96.80;;;;;;6243106;22;20446;-82
2023/09/07 05:22:40;;;;;;;10.80;4.70;;;20.10;97.00;;;;;;6242676;22;20499;-83
2023/09/07 05:25:10;;;;;;;6.00;4.40;;;20.40;96.80;;;;;;6246284;22;20954;-83
2023/09/07 05:28:10;;;;;;;4.70;4.30;;;20.30;96.70;;;;;;6146589;23;20461;-82
2023/09/07 05:30:43;;;;;;;5.83;5.23;;;20.30;96.80;;;;;;6181965;22;20480;-83
2023/09/07 05:33:42;;;;;;;5.27;4.77;;;20.30;96.80;;;;;;6247062;22;20480;-82
2023/09/07 05:36:43;;;;;;;4.43;4.13;;;20.50;96.20;;;;;;6249777;22;20403;-81
2023/09/07 05:39:51;;;;;;;4.93;4.33;;;20.50;95.70;;;;;;6247895;22;20407;-81
2023/09/07 05:42:56;;;;;;;4.80;4.37;;;20.30;95.60;;;;;;6204791;23;20634;-82
2023/09/07 05:46:18;;;;;;;4.77;4.30;;;20.30;95.70;;;;;;6224675;22;20449;-84
2023/09/07 05:49:15;;;;;;;4.30;3.90;;;20.20;95.80;;;;;;6260218;22;20403;-85
2023/09/07 06:03:50;;;;;;;4.77;4.10;;;20.40;95.50;;;;;;6083894;23;20419;-82
2023/09/07 06:11:40;;;;;;;;;;;;;;;;;;;;;
2023/09/07 06:15:22;;;;;;;3.93;3.63;;;27.10;81.10;;;;;;6118245;23;20396;-83
2023/09/07 06:31:58;;;;;;;3.83;3.53;;;32.20;52.50;;;;;;6274543;22;20554;-84
2023/09/07 06:35:14;;;;;;;4.40;4.00;;;32.40;51.70;;;;;;6127840;23;20459;-83
2023/09/07 06:50:33;;;;;;;5.67;4.37;;;33.80;48.00;;;;;;6087976;23;20537;-84
2023/09/07 06:53:23;;;;;;;;;;;;;;;;;;;;;
2023/09/07 06:56:29;;;;;;;;;;;;;;;;;;;;;
2023/09/07 07:02:52;;;;;;;4.43;4.07;;;31.70;49.10;;;;;;6213821;23;21063;-85
2023/09/07 07:05:46;;;;;;;;;;;;;;;;;;;;;
2023/09/07 07:08:40;;;;;;;3.97;3.67;;;31.30;52.40;;;;;;6218387;23;20409;-83
2023/09/07 07:12:20;;;;;;;4.80;4.40;;;31.90;50.20;;;;;;6220431;23;21338;-80
2023/09/07 07:15:23;;;;;;;4.10;3.73;;;32.00;49.90;;;;;;6193712;23;20398;-82
2023/09/07 07:18:39;;;;;;;4.53;3.57;;;32.40;49.40;;;;;;6146222;23;20467;-84
2023/09/07 07:22:22;;;;;;;5.30;3.67;;;33.50;48.10;;;;;;6152866;23;20412;-84
2023/09/07 07:25:37;;;;;;;;;;;;;;;;;;;;;
2023/09/07 07:32:34;;;;;;;5.50;3.37;;;34.10;45.90;;;;;;6240847;22;20531;-84
2023/09/07 07:35:24;;;;;;;5.83;4.30;;;35.50;44.50;;;;;;6221122;22;20415;-83
2023/09/07 07:39:13;;;;;;;;;;;;;;;;;;;;;
2023/09/07 07:42:46;;;;;;;4.30;3.90;;;36.60;42.20;;;;;;6083670;23;20498;-82
2023/09/07 07:49:48;;;;;;;5.90;4.20;;;37.50;40.20;;;;;;6073506;23;20468;-85
2023/09/07 07:57:14;;;;;;;3.70;3.40;;;36.70;41.30;;;;;;6066688;23;20380;-83
2023/09/07 08:08:22;;;;;;;4.00;3.60;;;37.30;39.80;;;;;;6163753;23;20586;-83
2023/09/07 08:11:56;;;;;;;4.80;3.97;;;36.90;40.50;;;;;;6043524;23;20428;-85
2023/09/07 08:24:09;;;;;;;;;;;;;;;;;;;;;
2023/09/07 08:27:55;;;;;;;4.10;3.80;;;35.30;42.60;;;;;;5991564;23;20469;-81
2023/09/07 08:36:34;;;;;;;3.93;3.53;;;36.60;41.10;;;;;;6257155;22;20501;-83
2023/09/07 08:46:36;;;;;;;5.90;3.57;;;36.90;39.60;;;;;;6010008;23;20494;-83
2023/09/07 08:53:26;;;;;;;;;;;;;;;;;;;;;
2023/09/07 08:56:14;;;;;;;4.40;4.03;;;32.10;46.60;;;;;;6041435;23;20470;-85
2023/09/07 08:59:32;;;;;;;4.30;4.00;;;30.10;51.50;;;;;;5956253;23;20422;-81
2023/09/07 09:02:30;;;;;;;4.53;4.13;;;29.20;52.70;;;;;;5994201;23;20437;-83
2023/09/07 09:06:00;;;;;;;4.20;3.90;;;28.30;55.00;;;;;;6024818;23;20433;-83
2023/09/07 09:09:22;;;;;;;4.47;4.03;;;30.50;52.30;;;;;;6015977;23;20417;-84
2023/09/07 09:13:16;;;;;;;4.40;4.00;;;33.10;47.30;;;;;;6023668;23;20414;-84
2023/09/07 09:19:49;;;;;;;4.53;4.20;;;33.90;45.40;;;;;;6091771;23;20488;-83
2023/09/07 09:23:04;;;;;;;4.23;3.87;;;33.10;46.40;;;;;;6075896;23;20562;-83
2023/09/07 09:29:31;;;;;;;3.60;3.30;;;33.90;45.50;;;;;;6001361;23;20402;-84
2023/09/07 09:32:32;;;;;;;4.50;3.60;;;34.10;44.80;;;;;;6073048;23;20650;-83
2023/09/07 09:35:55;;;;;;;;;;;;;;;;;;;;;
2023/09/07 09:43:03;;;;;;;4.30;3.60;;;34.40;44.40;;;;;;6208217;23;20445;-82
2023/09/07 09:46:13;;;;;;;3.80;3.50;;;35.30;43.80;;;;;;6152676;23;20383;-84
2023/09/07 09:53:10;;;;;;;3.93;3.63;;;35.50;42.90;;;;;;6212702;23;21302;-83
2023/09/07 09:56:26;;;;;;;4.10;3.80;;;35.50;42.50;;;;;;6156964;23;20477;-83
2023/09/07 09:59:20;;;;;;;3.73;3.50;;;34.50;44.30;;;;;;6049228;23;20418;-85
2023/09/07 10:02:31;;;;;;;4.37;4.07;;;34.50;44.50;;;;;;6192573;23;20413;-83
2023/09/07 10:05:58;;;;;;;3.77;3.47;;;34.50;44.80;;;;;;6187537;23;20499;-83
2023/09/07 10:08:39;;;;;;;;;;;;;;;;;;;;;
2023/09/07 10:12:17;;;;;;;4.23;4.00;;;35.20;43.90;;;;;;6157066;23;20431;-84
2023/09/07 10:19:33;;;;;;;3.90;3.50;;;36.00;42.60;;;;;;6210075;23;20486;-83
2023/09/07 10:22:53;;;;;;;4.33;3.90;;;36.30;42.30;;;;;;6184733;23;20475;-83
2023/09/07 10:26:04;;;;;;;3.87;3.60;;;35.60;43.10;;;;;;6209156;23;20419;-82
2023/09/07 10:29:05;;;;;;;3.50;3.30;;;36.50;42.10;;;;;;6189129;23;20467;-83
2023/09/07 10:35:29;;;;;;;4.50;4.10;;;36.20;42.40;;;;;;6206383;23;20468;-80
2023/09/07 10:38:35;;;;;;;3.90;3.60;;;35.70;43.10;;;;;;6213842;23;20405;-82
2023/09/07 10:41:21;;;;;;;5.70;4.10;;;35.30;43.80;;;;;;6188359;23;20500;-83
2023/09/07 10:44:13;;;;;;;4.37;3.90;;;35.20;43.80;;;;;;6225992;23;20428;-81
2023/09/07 10:47:33;;;;;;;5.07;3.27;;;35.10;43.80;;;;;;6194614;23;20544;-83
2023/09/07 10:54:28;;;;;;;3.80;3.50;;;34.80;44.40;;;;;;6117319;23;20549;-84
2023/09/07 10:57:24;;;;;;;3.07;2.87;;;35.00;44.40;;;;;;6113046;23;20414;-85
2023/09/07 11:00:19;;;;;;;3.90;3.60;;;34.80;44.10;;;;;;6152508;23;20407;-81
2023/09/07 11:03:14;;;;;;;3.70;3.40;;;34.60;44.50;;;;;;6149695;23;20415;-84
2023/09/07 11:06:52;;;;;;;4.20;3.90;;;34.20;45.50;;;;;;6117821;23;20403;-82
2023/09/07 11:10:12;;;;;;;4.20;3.40;;;33.80;46.30;;;;;;6191145;23;20415;-82
2023/09/07 11:13:24;;;;;;;3.40;3.20;;;34.40;45.80;;;;;;6125586;23;20412;-82
2023/09/07 11:16:14;;;;;;;4.63;4.23;;;35.20;44.80;;;;;;6187846;23;20886;-83
2023/09/07 11:19:08;;;;;;;3.80;3.50;;;34.80;45.60;;;;;;6129729;23;20391;-83
2023/09/07 11:22:00;;;;;;;3.87;3.60;;;34.70;45.60;;;;;;6126528;23;20431;-84
2023/09/07 11:25:11;;;;;;;3.60;3.30;;;34.80;45.10;;;;;;6130161;23;20430;-84
2023/09/07 11:28:36;;;;;;;3.63;3.40;;;34.80;45.00;;;;;;6146936;23;20448;-82
2023/09/07 11:31:11;;;;;;;4.00;3.50;;;35.70;44.00;;;;;;6193516;23;20844;-83
2023/09/07 11:38:14;;;;;;;3.50;3.30;;;35.70;43.10;;;;;;6211878;23;20413;-84
2023/09/07 11:45:38;;;;;;;3.80;3.50;;;34.60;45.00;;;;;;6203776;23;20401;-83
2023/09/07 11:48:56;;;;;;;3.67;3.40;;;35.30;44.80;;;;;;6187746;23;20441;-84
2023/09/07 11:52:14;;;;;;;;;;;;;;;;;;;;;
2023/09/07 11:55:24;;;;;;;4.73;3.80;;;35.70;43.90;;;;;;6210932;23;20455;-83
2023/09/07 11:58:07;;;;;;;4.70;3.60;;;35.20;45.20;;;;;;6188853;23;20496;-86
2023/09/07 12:01:14;;;;;;;;;;;;;;;;;;;;;
2023/09/07 12:04:31;;;;;;;4.20;3.90;;;35.60;43.80;;;;;;6213393;23;21119;-84
2023/09/07 12:08:17;;;;;;;4.30;4.00;;;35.20;44.20;;;;;;6098236;23;20440;-83
2023/09/07 12:11:42;;;;;;;3.30;3.10;;;34.80;44.30;;;;;;6061278;23;20425;-82
2023/09/07 12:15:17;;;;;;;4.70;4.37;;;34.60;45.20;;;;;;6097225;23;20918;-84
2023/09/07 12:18:07;;;;;;;4.67;4.27;;;35.10;44.40;;;;;;6108610;23;20432;-82
2023/09/07 12:20:50;;;;;;;3.37;3.03;;;34.60;45.20;;;;;;6089215;23;20449;-83
2023/09/07 12:23:28;;;;;;;3.83;3.57;;;34.40;45.70;;;;;;6111492;23;20403;-81
2023/09/07 12:26:19;;;;;;;4.77;3.73;;;34.50;45.80;;;;;;6089020;23;20405;-83
2023/09/07 12:29:05;;;;;;;3.53;3.23;;;35.00;45.50;;;;;;6084811;23;20494;-84
2023/09/07 12:31:54;;;;;;;3.97;3.67;;;35.00;44.70;;;;;;6110451;23;20484;-83
2023/09/07 12:34:43;;;;;;;4.10;3.80;;;34.40;45.50;;;;;;6087051;23;20431;-84
2023/09/07 12:37:34;;;;;;;3.80;3.47;;;34.40;45.60;;;;;;6085612;23;20419;-84
2023/09/07 12:40:12;;;;;;;5.60;3.60;;;34.30;45.50;;;;;;6103354;23;20408;-85
2023/09/07 12:43:03;;;;;;;3.80;3.60;;;34.60;45.70;;;;;;6103968;23;20476;-83
2023/09/07 12:45:43;;;;;;;3.87;3.63;;;35.00;45.00;;;;;;6197639;23;20444;-83
2023/09/07 12:48:17;;;;;;;3.67;3.37;;;35.00;44.60;;;;;;6190238;23;20437;-83
2023/09/07 12:50:49;;;;;;;3.83;3.53;;;35.00;44.80;;;;;;6212562;23;20532;-85
2023/09/07 12:53:45;;;;;;;5.70;3.63;;;34.80;45.00;;;;;;6214091;23;20445;-82
2023/09/07 12:56:40;;;;;;;3.80;3.50;;;34.60;45.70;;;;;;6182153;23;20401;-83
2023/09/07 12:59:15;;;;;;;4.00;3.57;;;35.40;44.70;;;;;;6188095;23;20470;-81
2023/09/07 13:02:06;;;;;;;3.77;3.47;;;35.70;43.00;;;;;;6188365;23;20494;-84
2023/09/07 13:04:39;;;;;;;3.87;3.57;;;35.40;44.00;;;;;;6187310;23;20405;-84
2023/09/07 13:07:22;;;;;;;4.10;3.80;;;35.00;44.60;;;;;;6186086;23;20526;-84
2023/09/07 13:10:01;;;;;;;4.07;3.77;;;35.30;44.00;;;;;;6188683;23;20753;-83
2023/09/07 13:12:46;;;;;;;5.07;4.07;;;35.20;44.10;;;;;;6195168;23;20409;-82
2023/09/07 13:15:24;;;;;;;4.17;3.87;;;34.80;44.70;;;;;;6197989;23;20457;-84
2023/09/07 13:18:13;;;;;;;3.60;3.30;;;34.80;45.20;;;;;;6190617;23;20416;-82
2023/09/07 13:20:59;;;;;;;4.30;4.00;;;34.70;45.30;;;;;;6214428;23;20488;-82
2023/09/07 13:23:33;;;;;;;6.27;3.70;;;35.00;44.70;;;;;;6191862;23;20417;-83
2023/09/07 13:26:15;;;;;;;4.07;3.77;;;34.90;44.80;;;;;;6196122;23;20405;-84
2023/09/07 13:28:44;;;;;;;4.13;3.83;;;35.20;44.60;;;;;;6223819;23;20441;-83
2023/09/07 13:31:23;;;;;;;3.70;3.40;;;35.50;43.80;;;;;;6195970;23;20433;-81
2023/09/07 13:34:14;;;;;;;4.30;4.00;;;35.50;43.30;;;;;;6191603;23;20404;-84
2023/09/07 13:36:53;;;;;;;4.83;3.83;;;35.20;42.70;;;;;;6191600;23;20425;-84
2023/09/07 13:39:33;;;;;;;3.20;3.00;;;35.00;43.00;;;;;;6191732;23;20769;-84
2023/09/07 13:42:08;;;;;;;3.50;3.20;;;35.00;43.50;;;;;;6192842;23;20472;-84
2023/09/07 13:48:15;;;;;;;5.10;3.83;;;35.00;40.60;;;;;;6218351;23;20444;-84
2023/09/07 13:50:49;;;;;;;3.50;3.30;;;35.20;40.30;;;;;;6191789;23;20452;-83
2023/09/07 13:53:29;;;;;;;3.20;3.00;;;35.10;39.10;;;;;;6192152;23;20401;-83
2023/09/07 13:56:06;;;;;;;3.67;3.37;;;34.80;39.70;;;;;;6194549;23;20512;-83
2023/09/07 13:58:46;;;;;;;3.40;3.20;;;34.60;40.20;;;;;;6194112;23;20409;-84
2023/09/07 14:01:23;;;;;;;3.73;3.43;;;34.60;40.40;;;;;;6219438;23;20464;-82
2023/09/07 14:03:59;;;;;;;3.70;3.40;;;34.50;40.60;;;;;;6194724;23;20431;-81
2023/09/07 14:06:39;;;;;;;3.83;3.53;;;34.70;40.00;;;;;;6187022;23;20748;-81
2023/09/07 14:09:06;;;;;;;3.57;3.33;;;34.50;39.70;;;;;;6181800;23;20938;-83
2023/09/07 14:11:39;;;;;;;3.53;3.30;;;34.30;40.80;;;;;;6212991;23;20425;-83
2023/09/07 14:14:10;;;;;;;5.13;3.70;;;34.30;41.30;;;;;;6205446;23;20413;-84
2023/09/07 14:16:36;;;;;;;3.90;3.60;;;34.30;41.50;;;;;;6205121;23;20393;-84
2023/09/07 14:19:10;;;;;;;4.27;3.63;;;34.60;40.40;;;;;;6231404;23;20413;-84
2023/09/07 14:21:45;;;;;;;5.50;3.80;;;34.70;40.80;;;;;;6207578;23;20444;-83
2023/09/07 14:24:21;;;;;;;3.93;3.60;;;34.70;40.80;;;;;;6230842;23;20397;-85
2023/09/07 14:26:55;;;;;;;3.50;3.30;;;34.50;40.60;;;;;;6230329;23;20397;-84
2023/09/07 14:29:28;;;;;;;3.43;3.23;;;34.50;40.30;;;;;;6195386;23;20436;-82
2023/09/07 14:31:55;;;;;;;3.57;3.37;;;34.40;40.40;;;;;;6225149;23;20428;-81
2023/09/07 14:34:23;;;;;;;3.97;3.70;;;34.30;40.60;;;;;;6223075;23;20421;-82
2023/09/07 14:37:06;;;;;;;3.73;3.43;;;34.20;41.60;;;;;;6221507;23;20452;-83
2023/09/07 14:40:04;;;;;;;3.83;3.50;;;34.40;42.40;;;;;;6196807;23;20478;-85
2023/09/07 14:43:22;;;;;;;4.57;3.40;;;34.20;43.30;;;;;;6207463;23;20458;-82
2023/09/07 14:46:09;;;;;;;4.07;3.73;;;33.90;44.30;;;;;;6186455;23;20429;-84
2023/09/07 14:48:56;;;;;;;3.80;3.50;;;33.80;44.30;;;;;;6185427;23;20445;-85
2023/09/07 14:51:40;;;;;;;4.70;3.43;;;34.00;42.30;;;;;;6189125;23;20417;-84
2023/09/07 14:54:21;;;;;;;3.43;3.13;;;33.80;40.60;;;;;;6186661;23;20416;-84
2023/09/07 14:57:05;;;;;;;3.40;3.10;;;33.90;40.40;;;;;;6187585;23;20405;-82
2023/09/07 15:00:14;;;;;;;4.13;3.83;;;33.80;41.10;;;;;;6192056;23;20771;-83
2023/09/07 15:03:41;;;;;;;;;;;;;;;;;;;;;
2023/09/07 15:07:33;;;;;;;3.80;3.50;;;33.80;41.10;;;;;;6062140;23;20396;-85
2023/09/07 15:15:24;;;;;;;;;;;;;;;;;;;;;
2023/09/07 15:34:04;;;;;;;3.73;3.43;;;33.10;41.90;;;;;;6011675;23;20399;-83
2023/09/07 15:37:46;;;;;;;4.30;3.90;;;33.10;42.10;;;;;;5893625;24;20453;-84
2023/09/07 15:41:21;;;;;;;;;;;;;;;;;;;;;
2023/09/07 15:44:44;;;;;;;;;;;;;;;;;;;;;
2023/09/07 15:51:51;;;;;;;4.03;3.33;;;33.00;41.30;;;;;;5934851;24;20412;-81
2023/09/07 15:59:17;;;;;;;;;;;;;;;;;;;;;
2023/09/07 16:10:45;;;;;;;4.97;4.37;;;32.80;40.20;;;;;;5900152;24;20443;-82
2023/09/07 16:14:40;;;;;;;3.17;2.87;;;32.60;40.70;;;;;;6002572;23;20394;-80
2023/09/07 16:22:06;;;;;;;3.80;3.50;;;32.40;40.90;;;;;;5968814;23;20467;-84
2023/09/07 16:26:20;;;;;;;;;;;;;;;;;;;;;
2023/09/07 16:30:25;;;;;;;;;;;;;;;;;;;;;
2023/09/07 16:41:58;;;;;;;;;;;;;;;;;;;;;
2023/09/07 16:45:55;;;;;;;3.77;3.47;;;32.00;39.90;;;;;;5973342;23;20392;-83
2023/09/07 16:49:22;;;;;;;4.53;3.50;;;31.90;40.10;;;;;;6006143;23;20585;-84
2023/09/07 16:52:55;;;;;;;3.77;3.47;;;31.60;40.70;;;;;;5971719;23;20451;-83
2023/09/07 16:56:58;;;;;;;;;;;;;;;;;;;;;
2023/09/07 17:00:11;;;;;;;;;;;;;;;;;;;;;
2023/09/07 17:03:13;;;;;;;4.50;3.53;;;31.50;41.40;;;;;;6079856;23;20414;-82
2023/09/07 17:14:20;;;;;;;;;;;;;;;;;;;;;
2023/09/07 17:17:41;;;;;;;3.90;3.50;;;31.30;43.10;;;;;;6076450;23;20882;-81
2023/09/07 17:24:07;;;;;;;3.63;3.43;;;31.30;43.70;;;;;;6242046;22;20414;-84
2023/09/07 17:41:06;;;;;;;4.70;4.23;;;31.20;44.60;;;;;;6279703;22;20462;-82
2023/09/07 17:44:50;;;;;;;5.30;4.23;;;30.90;45.10;;;;;;6097349;23;20384;-84
2023/09/07 17:48:51;;;;;;;;;;;;;;;;;;;;;
2023/09/07 17:52:12;;;;;;;7.87;4.43;;;31.00;45.70;;;;;;6123046;22;20447;-83
2023/09/07 17:55:46;;;;;;;;;;;;;;;;;;;;;
2023/09/07 18:02:48;;;;;;;4.77;4.27;;;30.30;47.50;;;;;;6058277;23;20414;-83
2023/09/07 18:06:17;;;;;;;;;;;;;;;;;;;;;
2023/09/07 18:09:50;;;;;;;5.90;5.07;;;30.20;48.10;;;;;;6044917;23;20801;-81
2023/09/07 18:13:22;;;;;;;7.40;5.23;;;30.10;48.30;;;;;;6078400;23;20420;-83
2023/09/07 18:32:41;;;;;;;;;;;;;;;;;;;;;
2023/09/07 18:36:19;;;;;;;6.63;5.10;;;29.60;52.20;;;;;;5992296;23;20427;-85
2023/09/07 18:39:54;;;;;;;5.20;4.80;;;29.50;52.60;;;;;;6047848;23;20472;-83
2023/09/07 18:43:20;;;;;;;5.20;4.70;;;29.40;52.70;;;;;;6221004;23;20471;-82
2023/09/07 18:46:24;;;;;;;5.40;4.90;;;29.40;53.20;;;;;;6241975;23;20393;-83
2023/09/07 18:50:01;;;;;;;5.37;4.87;;;29.30;53.60;;;;;;6113406;23;21085;-81
2023/09/07 18:53:44;;;;;;;5.53;5.03;;;29.30;53.70;;;;;;6044475;23;20449;-82
2023/09/07 19:14:43;;;;;;;4.40;4.00;;;28.50;56.50;;;;;;6184012;23;20545;-83
2023/09/07 19:22:11;;;;;;;;;;;;;;;;;;;;;
2023/09/07 19:25:22;;;;;;;6.23;5.37;;;28.30;57.90;;;;;;6129292;23;21288;-83
2023/09/07 19:29:02;;;;;;;;;;;;;;;;;;;;;
2023/09/07 19:33:04;;;;;;;;;;;;;;;;;;;;;
2023/09/07 19:36:54;;;;;;;5.70;5.20;;;28.10;59.40;;;;;;5898648;24;20463;-82
2023/09/07 19:44:23;;;;;;;4.80;4.40;;;28.00;60.30;;;;;;6008800;23;20933;-83
2023/09/07 20:26:07;;;;;;;6.20;5.13;;;26.80;65.50;;;;;;6114662;23;20383;-81
2023/09/07 20:29:29;;;;;;;5.80;5.30;;;26.90;66.40;;;;;;6155289;23;20470;-83
2023/09/07 20:32:12;;;;;;;6.73;5.40;;;26.80;67.40;;;;;;6113728;23;20455;-84
2023/09/07 20:35:30;;;;;;;;;;;;;;;;;;;;;
2023/09/07 20:38:47;;;;;;;7.57;5.60;;;26.80;68.10;;;;;;6152343;23;20422;-84
2023/09/07 20:41:49;;;;;;;;;;;;;;;;;;;;;
2023/09/07 20:45:17;;;;;;;6.80;6.20;;;26.60;68.30;;;;;;6243081;23;20381;-83
2023/09/07 20:47:59;;;;;;;5.70;5.20;;;26.70;68.40;;;;;;6225372;23;20432;-83
2023/09/07 20:50:42;;;;;;;6.63;5.27;;;26.60;68.30;;;;;;6221506;23;20444;-85
2023/09/07 20:53:42;;;;;;;5.33;4.90;;;26.60;68.40;;;;;;6227943;23;20401;-81
2023/09/07 20:56:45;;;;;;;6.10;5.30;;;26.70;68.20;;;;;;6229895;23;20415;-85
2023/09/07 20:59:31;;;;;;;5.40;4.90;;;26.70;68.30;;;;;;6229744;23;20415;-82
2023/09/07 21:02:09;;;;;;;6.87;6.27;;;26.50;68.90;;;;;;6251163;23;20437;-84
2023/09/07 21:04:51;;;;;;;7.80;6.47;;;26.30;69.20;;;;;;6226232;22;20482;-81
2023/09/07 21:07:51;;;;;;;5.27;4.80;;;26.30;70.60;;;;;;6227227;23;20792;-82